createdAt,value
2022-11-08T00:02:21.369Z,101060.19
2022-11-08T00:04:48.010Z,101062.50
2022-11-08T00:07:33.199Z,101062.13
2022-11-08T00:10:18.322Z,101064.84
2022-11-08T00:13:03.416Z,101065.25
2022-11-08T00:15:34.726Z,101065.63
2022-11-08T00:18:01.363Z,101062.50
2022-11-08T00:20:27.952Z,101056.25
2022-11-08T00:22:54.536Z,101054.31
2022-11-08T00:25:21.170Z,101059.75
2022-11-08T00:27:47.772Z,101053.91
2022-11-08T00:30:14.614Z,101051.97
2022-11-08T00:32:41.244Z,101053.13
2022-11-08T00:35:08.337Z,101052.72
2022-11-08T00:37:34.952Z,101056.22
2022-11-08T00:40:01.556Z,101050.34
2022-11-08T00:42:28.190Z,101046.47
2022-11-08T00:44:54.772Z,101042.19
2022-11-08T00:47:21.377Z,101051.16
2022-11-08T00:49:47.947Z,101044.53
2022-11-08T00:52:14.504Z,101047.22
2022-11-08T00:54:41.098Z,101039.47
2022-11-08T00:57:07.669Z,101046.47
2022-11-08T00:59:34.315Z,101044.47
2022-11-08T01:02:00.983Z,101051.50
2022-11-08T01:04:27.599Z,101041.38
2022-11-08T01:06:54.262Z,101039.00
2022-11-08T01:09:20.889Z,101040.91
2022-11-08T01:11:50.017Z,101040.50
2022-11-08T01:14:16.611Z,101039.72
2022-11-08T01:16:43.653Z,101050.25
2022-11-08T01:19:10.184Z,101036.22
2022-11-08T01:21:37.438Z,101029.97
2022-11-08T01:24:04.247Z,101031.53
2022-11-08T01:26:30.936Z,101031.13
2022-11-08T01:28:58.536Z,101024.91
2022-11-08T01:31:29.848Z,101030.38
2022-11-08T01:33:57.601Z,101024.53
2022-11-08T01:36:26.127Z,101018.28
2022-11-08T01:38:53.538Z,101017.09
2022-11-08T01:41:22.690Z,101015.53
2022-11-08T01:43:51.544Z,101006.94
2022-11-08T01:46:19.174Z,100999.16
2022-11-08T01:48:49.615Z,100998.78
2022-11-08T01:51:20.712Z,100998.00
2022-11-08T01:53:47.874Z,100991.78
2022-11-08T01:56:15.507Z,100981.66
2022-11-08T01:58:45.564Z,100987.47
2022-11-08T02:01:13.034Z,100982.84
2022-11-08T02:03:41.607Z,100982.03
2022-11-08T02:06:08.626Z,100974.28
2022-11-08T02:08:39.623Z,100976.19
2022-11-08T02:11:07.959Z,100972.66
2022-11-08T02:13:37.601Z,100962.56
2022-11-08T02:16:10.974Z,100964.47
2022-11-08T02:18:37.559Z,100957.06
2022-11-08T02:21:13.196Z,100950.09
2022-11-08T02:23:52.172Z,100954.34
2022-11-08T02:26:22.351Z,100949.69
2022-11-08T02:28:49.595Z,100956.31
2022-11-08T02:31:18.636Z,100952.41
2022-11-08T02:33:46.145Z,100950.09
2022-11-08T02:36:17.317Z,100949.31
2022-11-08T02:38:49.216Z,100945.41
2022-11-08T02:41:15.704Z,100946.19
2022-11-08T02:43:42.247Z,100937.63
2022-11-08T02:46:08.786Z,100946.56
2022-11-08T02:48:35.270Z,100934.50
2022-11-08T02:51:02.000Z,100932.56
2022-11-08T02:53:28.509Z,100924.75
2022-11-08T02:55:55.449Z,100924.34
2022-11-08T02:58:24.103Z,100932.50
2022-11-08T03:00:50.575Z,100911.09
2022-11-08T03:03:17.053Z,100909.16
2022-11-08T03:05:43.609Z,100917.34
2022-11-08T03:08:10.161Z,100909.56
2022-11-08T03:10:36.680Z,100904.91
2022-11-08T03:13:05.198Z,100906.84
2022-11-08T03:15:32.667Z,100906.06
2022-11-08T03:18:00.161Z,100908.00
2022-11-08T03:20:32.129Z,100897.88
2022-11-08T03:23:00.468Z,100890.91
2022-11-08T03:25:27.149Z,100888.56
2022-11-08T03:27:53.788Z,100892.06
2022-11-08T03:30:20.937Z,100887.00
2022-11-08T03:32:49.769Z,100880.78
2022-11-08T03:35:16.848Z,100874.97
2022-11-08T03:37:51.053Z,100864.84
2022-11-08T03:40:18.830Z,100855.13
2022-11-08T03:42:46.066Z,100855.88
2022-11-08T03:45:13.488Z,100849.25
2022-11-08T03:47:42.983Z,100839.56
2022-11-08T03:50:10.938Z,100832.56
2022-11-08T03:52:49.054Z,100822.81
2022-11-08T03:55:16.985Z,100815.44
2022-11-08T03:57:46.097Z,100820.84
2022-11-08T04:00:14.439Z,100817.34
2022-11-08T04:02:41.374Z,100816.16
2022-11-08T04:05:10.665Z,100813.03
2022-11-08T04:07:37.900Z,100804.88
2022-11-08T04:10:06.019Z,100798.66
2022-11-08T04:12:51.009Z,100787.78
2022-11-08T04:15:20.814Z,100790.13
2022-11-08T04:18:08.553Z,100793.97
2022-11-08T04:20:59.655Z,100781.16
2022-11-08T04:23:26.986Z,100779.97
2022-11-08T04:25:55.958Z,100770.28
2022-11-08T04:28:26.251Z,100771.44
2022-11-08T04:30:54.793Z,100778.44
2022-11-08T04:33:21.414Z,100775.31
2022-11-08T04:35:48.815Z,100778.03
2022-11-08T04:38:16.200Z,100778.78
2022-11-08T04:40:43.181Z,100776.88
2022-11-08T04:43:09.694Z,100772.56
2022-11-08T04:45:36.355Z,100781.50
2022-11-08T04:48:02.887Z,100764.41
2022-11-08T04:50:29.466Z,100779.97
2022-11-08T04:52:56.138Z,100769.09
2022-11-08T04:55:23.332Z,100753.13
2022-11-08T04:57:50.287Z,100757.44
2022-11-08T05:00:17.188Z,100746.91
2022-11-08T05:02:43.829Z,100734.50
2022-11-08T05:05:10.612Z,100728.66
2022-11-08T05:07:37.147Z,100741.09
2022-11-08T05:10:04.017Z,100738.38
2022-11-08T05:12:30.500Z,100725.50
2022-11-08T05:14:57.037Z,100721.25
2022-11-08T05:17:23.567Z,100730.97
2022-11-08T05:20:08.769Z,100722.03
2022-11-08T05:22:53.813Z,100710.75
2022-11-08T05:25:20.373Z,100715.81
2022-11-08T05:27:46.841Z,100715.03
2022-11-08T05:30:13.473Z,100706.84
2022-11-08T05:32:39.991Z,100706.50
2022-11-08T05:35:07.126Z,100704.53
2022-11-08T05:37:33.578Z,100709.19
2022-11-08T05:40:00.042Z,100698.69
2022-11-08T05:42:26.562Z,100701.41
2022-11-08T05:44:53.061Z,100704.13
2022-11-08T05:47:19.589Z,100697.94
2022-11-08T05:49:46.055Z,100698.69
2022-11-08T05:52:12.563Z,100689.75
2022-11-08T05:54:39.006Z,100694.03
2022-11-08T05:57:05.521Z,100693.25
2022-11-08T05:59:32.042Z,100689.38
2022-11-08T06:01:58.600Z,100695.97
2022-11-08T06:04:25.211Z,100676.94
2022-11-08T06:06:51.704Z,100680.78
2022-11-08T06:09:19.248Z,100676.94
2022-11-08T06:11:45.759Z,100677.69
2022-11-08T06:14:13.425Z,100685.09
2022-11-08T06:16:39.997Z,100681.56
2022-11-08T06:19:06.533Z,100685.47
2022-11-08T06:21:33.071Z,100693.25
2022-11-08T06:24:00.792Z,100687.41
2022-11-08T06:26:27.416Z,100678.88
2022-11-08T06:28:53.938Z,100681.56
2022-11-08T06:31:20.475Z,100680.03
2022-11-08T06:33:47.114Z,100688.19
2022-11-08T06:36:13.743Z,100672.63
2022-11-08T06:38:40.207Z,100673.03
2022-11-08T06:41:06.767Z,100680.81
2022-11-08T06:43:35.180Z,100676.13
2022-11-08T06:46:03.236Z,100674.97
2022-11-08T06:48:35.582Z,100673.03
2022-11-08T06:51:03.220Z,100666.81
2022-11-08T06:53:29.918Z,100661.38
2022-11-08T06:55:56.466Z,100661.00
2022-11-08T06:58:23.003Z,100669.53
2022-11-08T07:01:51.272Z,100666.44
2022-11-08T07:14:23.253Z,100687.41
2022-11-08T07:16:50.785Z,100684.69
2022-11-08T07:19:17.263Z,100684.28
2022-11-08T07:21:43.748Z,100668.00
2022-11-08T07:24:10.313Z,100668.75
2022-11-08T07:26:37.784Z,100663.31
2022-11-08T07:29:04.316Z,100662.19
2022-11-08T07:31:30.811Z,100660.22
2022-11-08T07:33:57.311Z,100657.91
2022-11-08T07:36:23.770Z,100658.69
2022-11-08T07:38:53.026Z,100649.78
2022-11-08T07:41:19.583Z,100645.50
2022-11-08T07:43:46.166Z,100633.09
2022-11-08T07:46:12.702Z,100635.03
2022-11-08T07:48:39.230Z,100630.75
2022-11-08T07:51:05.926Z,100635.44
2022-11-08T07:53:32.440Z,100638.50
2022-11-08T07:55:58.930Z,100635.81
2022-11-08T07:58:25.684Z,100640.88
2022-11-08T08:00:52.424Z,100647.47
2022-11-08T08:03:19.390Z,100647.88
2022-11-08T08:05:58.032Z,100649.81
2022-11-08T08:08:27.322Z,100643.59
2022-11-08T08:10:58.207Z,100649.44
2022-11-08T08:13:24.699Z,100654.84
2022-11-08T08:15:51.173Z,100652.53
2022-11-08T08:18:20.933Z,100659.13
2022-11-08T08:20:47.413Z,100659.16
2022-11-08T08:23:13.971Z,100650.59
2022-11-08T08:25:40.451Z,100662.25
2022-11-08T08:28:07.407Z,100656.41
2022-11-08T08:30:34.386Z,100654.47
2022-11-08T08:33:26.912Z,100656.41
2022-11-08T08:35:52.708Z,100656.78
2022-11-08T08:38:19.315Z,100672.38
2022-11-08T08:40:45.902Z,100669.22
2022-11-08T08:43:12.408Z,100663.41
2022-11-08T08:45:38.943Z,100671.56
2022-11-08T08:48:05.740Z,100671.97
2022-11-08T08:50:32.976Z,100669.25
2022-11-08T08:53:00.725Z,100666.09
2022-11-08T08:55:27.932Z,100655.59
2022-11-08T08:57:54.525Z,100643.94
2022-11-08T09:03:09.548Z,100645.09
2022-11-08T09:05:36.714Z,100655.19
2022-11-08T09:08:03.755Z,100634.56
2022-11-08T09:10:30.391Z,100641.59
2022-11-08T09:12:56.876Z,100642.34
2022-11-08T09:15:23.534Z,100636.53
2022-11-08T09:17:50.088Z,100636.13
2022-11-08T09:20:16.630Z,100640.78
2022-11-08T09:22:43.086Z,100636.88
2022-11-08T09:25:10.531Z,100629.88
2022-11-08T09:27:37.159Z,100630.25
2022-11-08T09:30:05.312Z,100617.00
2022-11-08T09:32:46.698Z,100611.94
2022-11-08T09:35:18.400Z,100615.81
2022-11-08T09:37:47.186Z,100621.28
2022-11-08T09:40:20.271Z,100620.50
2022-11-08T09:43:05.809Z,100628.25
2022-11-08T09:45:41.948Z,100635.63
2022-11-08T09:48:21.843Z,100633.28
2022-11-08T09:50:52.238Z,100632.50
2022-11-08T09:53:31.606Z,100641.06
2022-11-08T09:56:06.415Z,100641.47
2022-11-08T09:58:42.016Z,100638.69
2022-11-08T10:01:11.775Z,100627.38
2022-11-08T10:03:38.581Z,100627.75
2022-11-08T10:06:17.805Z,100621.84
2022-11-08T10:08:56.783Z,100619.47
2022-11-08T10:11:35.900Z,100617.13
2022-11-08T10:14:22.778Z,100614.78
2022-11-08T10:20:26.966Z,100609.69
2022-11-08T10:23:14.445Z,100610.06
2022-11-08T10:25:49.750Z,100612.00
2022-11-08T10:28:22.112Z,100628.34
2022-11-08T10:30:50.972Z,100627.16
2022-11-08T10:33:34.428Z,100627.91
2022-11-08T10:36:11.462Z,100626.72
2022-11-08T10:38:52.607Z,100622.03
2022-11-08T10:41:31.931Z,100627.91
2022-11-08T10:44:13.324Z,100629.84
2022-11-08T10:46:48.577Z,100638.03
2022-11-08T10:49:22.836Z,100620.47
2022-11-08T10:51:53.082Z,100632.56
2022-11-08T10:54:42.670Z,100644.22
2022-11-08T10:57:11.340Z,100616.50
2022-11-08T10:59:38.037Z,100613.38
2022-11-08T11:02:20.493Z,100604.41
2022-11-08T11:04:47.147Z,100603.22
2022-11-08T11:07:30.692Z,100618.34
2022-11-08T11:09:57.194Z,100614.00
2022-11-08T11:12:23.697Z,100613.59
2022-11-08T11:14:57.849Z,100605.00
2022-11-08T11:17:34.226Z,100612.78
2022-11-08T11:20:04.335Z,100605.78
2022-11-08T11:22:34.447Z,100606.91
2022-11-08T11:25:17.807Z,100602.63
2022-11-08T11:27:50.751Z,100595.97
2022-11-08T11:30:24.496Z,100604.53
2022-11-08T11:33:00.565Z,100586.97
2022-11-08T11:35:35.704Z,100581.88
2022-11-08T11:38:06.683Z,100589.63
2022-11-08T11:40:41.465Z,100581.81
2022-11-08T11:43:20.959Z,100589.59
2022-11-08T11:46:04.634Z,100594.66
2022-11-08T11:48:36.449Z,100584.50
2022-11-08T11:51:03.218Z,100590.72
2022-11-08T11:53:33.183Z,100597.38
2022-11-08T11:56:13.808Z,100582.97
2022-11-08T11:58:47.644Z,100584.09
2022-11-08T12:01:24.186Z,100584.41
2022-11-08T12:03:57.537Z,100587.91
2022-11-08T12:06:45.015Z,100587.50
2022-11-08T12:09:21.024Z,100581.97
2022-11-08T12:12:06.384Z,100579.22
2022-11-08T12:14:38.209Z,100581.50
2022-11-08T12:17:16.298Z,100583.00
2022-11-08T12:20:11.271Z,100579.88
2022-11-08T12:23:01.361Z,100567.41
2022-11-08T12:26:04.829Z,100581.00
2022-11-08T12:28:42.078Z,100578.28
2022-11-08T12:31:34.657Z,100581.38
2022-11-08T12:34:19.464Z,100575.50
2022-11-08T12:37:08.157Z,100564.59
2022-11-08T12:39:45.831Z,100570.81
2022-11-08T12:42:32.635Z,100578.25
2022-11-08T12:45:26.640Z,100579.00
2022-11-08T12:48:06.441Z,100575.44
2022-11-08T12:50:54.356Z,100583.25
2022-11-08T12:53:38.837Z,100569.94
2022-11-08T12:56:10.717Z,100571.53
2022-11-08T12:58:47.161Z,100579.72
2022-11-08T13:01:17.610Z,100569.19
2022-11-08T13:03:49.928Z,100575.41
2022-11-08T13:06:19.494Z,100573.47
2022-11-08T13:08:57.900Z,100564.09
2022-11-08T13:11:36.310Z,100560.94
2022-11-08T13:14:04.896Z,100577.69
2022-11-08T13:16:39.192Z,100560.50
2022-11-08T13:19:29.797Z,100569.06
2022-11-08T13:21:56.459Z,100567.88
2022-11-08T13:27:31.605Z,100562.75
2022-11-08T13:30:22.651Z,100573.66
2022-11-08T13:32:58.313Z,100568.56
2022-11-08T13:35:24.732Z,100565.47
2022-11-08T13:37:52.274Z,100569.72
2022-11-08T13:40:27.494Z,100564.63
2022-11-08T13:43:14.720Z,100563.88
2022-11-08T13:45:41.458Z,100563.88
2022-11-08T13:48:24.869Z,100552.16
2022-11-08T13:51:18.570Z,100561.13
2022-11-08T13:53:49.759Z,100560.34
2022-11-08T13:56:25.542Z,100558.78
2022-11-08T13:58:53.423Z,100563.50
2022-11-08T14:01:20.951Z,100562.72
2022-11-08T14:03:47.525Z,100570.13
2022-11-08T14:06:19.268Z,100565.47
2022-11-08T14:08:55.744Z,100568.59
2022-11-08T14:11:30.926Z,100572.09
2022-11-08T14:35:32.919Z,100550.78
2022-11-08T14:37:59.594Z,100549.22
2022-11-08T14:40:29.344Z,100543.34
2022-11-08T14:42:56.895Z,100543.75
2022-11-08T14:45:29.201Z,100546.50
2022-11-08T14:48:04.498Z,100550.41
2022-11-08T14:50:33.879Z,100551.59
2022-11-08T14:53:21.183Z,100549.28
2022-11-08T14:55:53.736Z,100542.25
2022-11-08T14:58:21.511Z,100542.25
2022-11-08T15:00:49.631Z,100537.63
2022-11-08T15:03:19.538Z,100545.44
2022-11-08T15:06:00.945Z,100550.91
2022-11-08T15:08:31.616Z,100544.69
2022-11-08T15:11:04.042Z,100543.47
2022-11-08T15:13:38.399Z,100539.97
2022-11-08T15:16:06.869Z,100555.19
2022-11-08T15:18:41.490Z,100551.31
2022-11-08T15:21:23.459Z,100550.94
2022-11-08T15:23:53.825Z,100554.47
2022-11-08T15:26:26.084Z,100550.19
2022-11-08T15:29:17.272Z,100531.44
2022-11-08T15:31:50.995Z,100542.00
2022-11-08T15:34:21.751Z,100541.66
2022-11-08T15:36:48.965Z,100533.88
2022-11-08T15:39:25.283Z,100541.66
2022-11-08T15:42:13.116Z,100535.84
2022-11-08T15:44:59.111Z,100524.94
2022-11-08T15:47:34.830Z,100542.94
2022-11-08T15:50:01.886Z,100533.16
2022-11-08T15:52:28.399Z,100537.88
2022-11-08T15:54:55.030Z,100527.00
2022-11-08T15:57:22.637Z,100529.34
2022-11-08T15:59:49.129Z,100523.53
2022-11-08T16:02:15.892Z,100523.16
2022-11-08T16:04:42.349Z,100528.25
2022-11-08T16:07:09.042Z,100524.78
2022-11-08T16:09:35.571Z,100527.53
2022-11-08T16:12:03.252Z,100522.13
2022-11-08T16:14:29.889Z,100523.28
2022-11-08T16:16:58.331Z,100514.34
2022-11-08T16:19:25.277Z,100520.63
2022-11-08T16:21:52.557Z,100525.34
2022-11-08T16:24:20.224Z,100526.94
2022-11-08T16:26:47.322Z,100526.94
2022-11-08T16:29:20.475Z,100536.72
2022-11-08T16:31:48.056Z,100541.00
2022-11-08T16:34:14.661Z,100534.81
2022-11-08T16:36:44.531Z,100536.38
2022-11-08T16:39:17.862Z,100529.38
2022-11-08T16:41:44.765Z,100527.44
2022-11-08T16:44:11.683Z,100526.66
2022-11-08T16:46:39.601Z,100523.22
2022-11-08T16:49:07.194Z,100521.63
2022-11-08T16:51:33.838Z,100522.09
2022-11-08T16:54:02.795Z,100525.97
2022-11-08T16:56:29.455Z,100520.94
2022-11-08T16:58:55.959Z,100536.19
2022-11-08T17:01:33.059Z,100519.00
2022-11-08T17:03:59.648Z,100516.28
2022-11-08T17:06:27.372Z,100513.53
2022-11-08T17:08:54.009Z,100522.47
2022-11-08T17:11:23.133Z,100513.44
2022-11-08T17:13:50.484Z,100516.56
2022-11-08T17:16:18.600Z,100517.69
2022-11-08T17:18:49.788Z,100513.00
2022-11-08T17:24:06.183Z,100509.50
2022-11-08T17:26:32.786Z,100503.28
2022-11-08T17:28:59.269Z,100507.97
2022-11-08T17:31:25.958Z,100513.06
2022-11-08T17:33:54.804Z,100511.13
2022-11-08T17:36:21.357Z,100513.84
2022-11-08T17:38:47.923Z,100514.66
2022-11-08T17:41:15.701Z,100519.75
2022-11-08T17:43:43.142Z,100514.34
2022-11-08T17:46:11.816Z,100515.50
2022-11-08T17:48:39.243Z,100515.13
2022-11-08T17:51:06.332Z,100520.59
2022-11-08T17:53:34.020Z,100520.63
2022-11-08T17:56:02.841Z,100533.91
2022-11-08T17:58:32.431Z,100530.75
2022-11-08T18:00:59.545Z,100537.78
2022-11-08T18:03:27.021Z,100523.75
2022-11-08T18:05:57.026Z,100529.22
2022-11-08T18:08:27.167Z,100524.59
2022-11-08T18:10:55.660Z,100527.69
2022-11-08T18:13:24.433Z,100530.81
2022-11-08T18:15:51.442Z,100537.06
2022-11-08T18:18:18.965Z,100534.69
2022-11-08T18:20:53.411Z,100528.03
2022-11-08T18:23:20.276Z,100529.97
2022-11-08T18:25:51.774Z,100531.13
2022-11-08T18:28:18.296Z,100525.25
2022-11-08T18:30:47.965Z,100529.91
2022-11-08T18:33:15.596Z,100530.72
2022-11-08T18:35:43.375Z,100531.50
2022-11-08T18:38:11.409Z,100523.69
2022-11-08T18:40:38.422Z,100525.59
2022-11-08T18:43:05.283Z,100530.28
2022-11-08T18:45:31.926Z,100525.19
2022-11-08T18:47:58.526Z,100525.19
2022-11-08T18:50:25.059Z,100520.13
2022-11-08T18:52:51.662Z,100521.31
2022-11-08T18:55:18.244Z,100522.47
2022-11-08T18:57:46.077Z,100521.31
2022-11-08T19:00:12.888Z,100530.72
2022-11-08T19:02:39.691Z,100529.91
2022-11-08T19:05:23.003Z,100531.88
2022-11-08T19:08:05.120Z,100529.16
2022-11-08T19:10:31.711Z,100530.72
2022-11-08T19:12:58.202Z,100525.25
2022-11-08T19:15:27.458Z,100529.91
2022-11-08T19:21:04.218Z,100527.66
2022-11-08T19:23:34.799Z,100524.94
2022-11-08T19:26:05.141Z,100526.50
2022-11-08T19:28:34.135Z,100521.81
2022-11-08T19:31:00.872Z,100523.38
2022-11-08T19:33:30.303Z,100525.31
2022-11-08T19:36:06.677Z,100524.53
2022-11-08T19:38:36.078Z,100528.03
2022-11-08T19:41:04.131Z,100517.53
2022-11-08T19:43:32.331Z,100518.31
2022-11-08T19:46:02.557Z,100518.69
2022-11-08T19:48:31.745Z,100515.19
2022-11-08T19:51:01.754Z,100516.41
2022-11-08T19:53:28.749Z,100515.66
2022-11-08T19:56:06.498Z,100517.56
2022-11-08T19:58:34.031Z,100518.41
2022-11-08T20:01:11.196Z,100522.31
2022-11-08T20:03:38.789Z,100526.97
2022-11-08T20:06:06.571Z,100522.34
2022-11-08T20:08:33.404Z,100530.91
2022-11-08T20:11:00.432Z,100529.75
2022-11-08T20:13:27.286Z,100534.81
2022-11-08T20:15:53.840Z,100536.41
2022-11-08T20:18:20.843Z,100532.50
2022-11-08T20:20:47.673Z,100529.38
2022-11-08T20:23:16.730Z,100534.81
2022-11-08T20:25:43.443Z,100548.84
2022-11-08T20:28:10.035Z,100543.38
2022-11-08T20:30:36.679Z,100543.75
2022-11-08T20:33:03.281Z,100544.53
2022-11-08T20:35:29.822Z,100558.94
2022-11-08T20:37:58.334Z,100560.16
2022-11-08T20:40:24.950Z,100559.78
2022-11-08T20:42:51.564Z,100560.16
2022-11-08T20:45:18.187Z,100555.88
2022-11-08T20:47:44.786Z,100551.56
2022-11-08T20:50:11.339Z,100550.44
2022-11-08T20:52:37.887Z,100553.56
2022-11-08T20:55:05.836Z,100557.03
2022-11-08T20:57:32.438Z,100560.53
2022-11-08T21:00:11.561Z,100564.09
2022-11-08T21:02:39.520Z,100555.97
2022-11-08T21:05:06.577Z,100570.00
2022-11-08T21:08:01.907Z,100567.66
2022-11-08T21:10:41.425Z,100569.22
2022-11-08T21:13:06.172Z,100564.59
2022-11-08T21:15:32.740Z,100568.47
2022-11-08T21:17:59.280Z,100572.41
2022-11-08T21:20:26.838Z,100568.16
2022-11-08T21:22:54.473Z,100564.63
2022-11-08T21:25:21.755Z,100568.53
2022-11-08T21:27:48.276Z,100571.66
2022-11-08T21:30:14.823Z,100573.25
2022-11-08T21:32:41.268Z,100566.66
2022-11-08T21:35:08.178Z,100565.13
2022-11-08T21:37:34.838Z,100572.91
2022-11-08T21:40:01.520Z,100564.34
2022-11-08T21:42:29.089Z,100561.25
2022-11-08T21:44:55.634Z,100567.47
2022-11-08T21:47:22.313Z,100574.50
2022-11-08T21:49:48.871Z,100578.38
2022-11-08T21:52:15.456Z,100581.50
2022-11-08T21:54:42.435Z,100583.84
2022-11-08T21:57:09.010Z,100590.47
2022-11-08T21:59:35.533Z,100586.94
2022-11-08T22:02:02.075Z,100581.88
2022-11-08T22:04:28.590Z,100586.97
2022-11-08T22:06:55.220Z,100585.03
2022-11-08T22:09:21.779Z,100590.91
2022-11-08T22:11:48.516Z,100597.13
2022-11-08T22:14:16.375Z,100588.94
2022-11-08T22:16:42.919Z,100595.16
2022-11-08T22:19:09.833Z,100589.72
2022-11-08T22:21:38.168Z,100581.53
2022-11-08T22:24:05.407Z,100584.25
2022-11-08T22:26:32.283Z,100586.22
2022-11-08T22:28:58.816Z,100571.81
2022-11-08T22:31:25.362Z,100581.53
2022-11-08T22:33:51.927Z,100574.53
2022-11-08T22:36:19.530Z,100571.41
2022-11-08T22:38:46.759Z,100573.41
2022-11-08T22:41:18.415Z,100578.47
2022-11-08T22:43:45.590Z,100579.22
2022-11-08T22:46:13.359Z,100580.00
2022-11-08T22:48:40.507Z,100585.88
2022-11-08T22:51:07.632Z,100588.97
2022-11-08T22:53:34.237Z,100591.31
2022-11-08T22:56:01.203Z,100590.16
2022-11-08T22:58:28.663Z,100591.72
2022-11-08T23:00:55.296Z,100591.75
2022-11-08T23:03:23.959Z,100582.41
2022-11-08T23:05:52.047Z,100595.66
2022-11-08T23:08:19.991Z,100600.34
2022-11-08T23:11:05.529Z,100585.53
2022-11-08T23:13:50.587Z,100583.59
2022-11-08T23:16:33.090Z,100571.91
2022-11-08T23:19:19.520Z,100574.22
2022-11-08T23:22:04.978Z,100574.19
2022-11-08T23:24:31.762Z,100573.41
2022-11-08T23:27:19.008Z,100569.91
2022-11-08T23:30:06.129Z,100577.28
2022-11-08T23:32:33.378Z,100584.69
2022-11-08T23:34:59.903Z,100580.00
2022-11-08T23:37:27.339Z,100577.22
2022-11-08T23:40:12.432Z,100575.31
2022-11-08T23:42:57.697Z,100577.63
2022-11-08T23:45:24.172Z,100572.16
2022-11-08T23:47:52.510Z,100569.44
2022-11-08T23:50:19.025Z,100581.13
2022-11-08T23:52:45.527Z,100573.72
2022-11-08T23:55:12.058Z,100578.38
2022-11-08T23:57:38.564Z,100583.84
